createdAt,value
2022-08-07T00:13:03.238Z,11.90
2022-08-07T00:15:50.941Z,11.80
2022-08-07T00:18:24.420Z,11.80
2022-08-07T00:21:01.465Z,11.80
2022-08-07T00:23:30.385Z,11.80
2022-08-07T00:26:01.597Z,11.80
2022-08-07T00:28:34.468Z,11.80
2022-08-07T00:31:16.438Z,11.70
2022-08-07T00:33:47.455Z,11.70
2022-08-07T00:36:15.259Z,11.70
2022-08-07T00:38:44.233Z,11.60
2022-08-07T00:41:14.700Z,11.60
2022-08-07T00:44:00.347Z,11.60
2022-08-07T00:46:30.908Z,11.60
2022-08-07T00:49:02.760Z,11.60
2022-08-07T00:51:58.368Z,11.60
2022-08-07T00:54:19.758Z,11.60
2022-08-07T00:56:49.827Z,11.60
2022-08-07T00:59:35.326Z,11.60
2022-08-07T01:02:28.115Z,11.50
2022-08-07T01:04:58.700Z,11.50
2022-08-07T01:07:28.392Z,11.50
2022-08-07T01:10:05.776Z,11.50
2022-08-07T01:12:34.667Z,11.50
2022-08-07T01:15:03.927Z,11.50
2022-08-07T01:17:32.534Z,11.50
2022-08-07T01:20:08.353Z,11.50
2022-08-07T01:22:46.833Z,11.40
2022-08-07T01:25:54.131Z,11.40
2022-08-07T01:28:14.296Z,11.30
2022-08-07T01:30:42.494Z,11.20
2022-08-07T01:33:09.268Z,11.30
2022-08-07T01:35:53.093Z,11.30
2022-08-07T01:38:25.033Z,11.20
2022-08-07T01:40:58.584Z,11.30
2022-08-07T01:43:27.244Z,11.20
2022-08-07T01:46:05.421Z,11.20
2022-08-07T01:48:35.334Z,11.20
2022-08-07T01:52:01.071Z,11.20
2022-08-07T01:54:11.611Z,11.10
2022-08-07T01:56:55.286Z,11.10
2022-08-07T01:59:45.937Z,11.10
2022-08-07T02:02:32.554Z,11.10
2022-08-07T02:05:05.313Z,11.10
2022-08-07T02:08:00.640Z,11.10
2022-08-07T02:10:29.244Z,11.10
2022-08-07T02:12:59.786Z,11.10
2022-08-07T02:15:29.336Z,11.10
2022-08-07T02:17:59.921Z,11.10
2022-08-07T02:20:29.556Z,11.00
2022-08-07T02:23:02.105Z,11.00
2022-08-07T02:26:30.505Z,11.00
2022-08-07T02:28:24.525Z,11.00
2022-08-07T02:30:53.087Z,11.00
2022-08-07T02:33:22.665Z,10.90
2022-08-07T02:36:29.162Z,10.90
2022-08-07T02:38:39.638Z,11.00
2022-08-07T02:41:21.907Z,11.00
2022-08-07T02:43:50.075Z,10.90
2022-08-07T02:46:19.529Z,10.90
2022-08-07T02:48:54.796Z,10.90
2022-08-07T02:51:41.672Z,10.90
2022-08-07T02:54:10.988Z,10.90
2022-08-07T02:56:41.568Z,10.90
2022-08-07T02:59:14.194Z,10.90
2022-08-07T03:01:42.374Z,10.80
2022-08-07T03:04:16.285Z,10.80
2022-08-07T03:06:45.875Z,10.80
2022-08-07T03:09:42.050Z,10.80
2022-08-07T03:12:08.064Z,10.80
2022-08-07T03:14:52.222Z,10.80
2022-08-07T03:17:19.953Z,10.80
2022-08-07T03:19:54.693Z,10.80
2022-08-07T03:22:29.412Z,10.80
2022-08-07T03:27:30.521Z,10.80
2022-08-07T03:29:59.288Z,10.70
2022-08-07T03:32:33.366Z,10.70
2022-08-07T03:35:17.988Z,10.70
2022-08-07T03:37:55.026Z,10.70
2022-08-07T03:40:24.116Z,10.70
2022-08-07T06:16:20.118Z,11.90
2022-08-07T06:18:51.549Z,11.90
2022-08-07T06:22:16.782Z,12.00
2022-08-07T06:24:45.867Z,12.10
2022-08-07T06:26:53.505Z,12.20
2022-08-07T06:29:27.263Z,12.30
2022-08-07T06:31:56.218Z,12.40
2022-08-07T06:34:29.626Z,12.60
2022-08-07T06:36:57.492Z,12.80
2022-08-07T06:40:13.177Z,13.10
2022-08-07T07:11:13.808Z,16.40
2022-08-07T07:13:58.238Z,16.70
2022-08-07T08:04:17.004Z,21.10
2022-08-07T08:17:56.563Z,21.80
2022-08-07T11:21:47.182Z,24.40
2022-08-07T11:24:24.178Z,24.10
2022-08-07T11:27:16.648Z,24.00
2022-08-07T11:30:17.851Z,24.00
2022-08-07T11:32:58.722Z,24.10
2022-08-07T11:35:30.706Z,24.30
2022-08-07T11:38:17.189Z,24.40
2022-08-07T11:40:57.752Z,24.40
2022-08-07T11:43:54.192Z,24.50
2022-08-07T11:46:33.901Z,24.50
2022-08-07T11:50:11.406Z,24.50
2022-08-07T11:52:37.529Z,24.50
2022-08-07T11:56:24.717Z,24.50
2022-08-07T11:58:40.929Z,24.50
2022-08-07T12:01:26.444Z,24.60
2022-08-07T12:04:31.865Z,24.60
2022-08-07T12:07:20.593Z,24.50
2022-08-07T12:10:15.727Z,24.50
2022-08-07T12:12:59.533Z,24.50
2022-08-07T12:16:06.354Z,24.60
2022-08-07T12:18:45.152Z,24.70
2022-08-07T14:55:17.618Z,24.90
2022-08-07T15:03:16.470Z,24.50
2022-08-07T15:05:54.789Z,24.40
2022-08-07T15:08:50.083Z,24.40
2022-08-07T15:11:53.250Z,24.30
2022-08-07T18:35:00.912Z,19.10
2022-08-07T18:54:58.353Z,18.60
2022-08-07T18:57:58.533Z,18.60
2022-08-07T19:00:59.447Z,18.50
2022-08-07T19:04:32.130Z,18.40
2022-08-07T19:07:09.714Z,18.30
2022-08-07T19:12:58.266Z,18.10
2022-08-07T19:16:05.106Z,18.10
2022-08-07T19:18:51.932Z,18.10
2022-08-07T19:22:04.646Z,18.00
2022-08-07T19:24:37.409Z,17.90
2022-08-07T19:28:56.735Z,18.00
2022-08-07T19:30:58.371Z,17.80
2022-08-07T19:33:01.245Z,17.70
2022-08-07T19:35:36.931Z,17.70
2022-08-07T19:38:16.668Z,17.50
2022-08-07T19:40:49.203Z,17.50
2022-08-07T19:46:14.691Z,17.30
2022-08-07T19:48:53.593Z,17.30
2022-08-07T19:51:51.234Z,17.20
2022-08-07T19:54:33.746Z,17.10
2022-08-07T19:58:02.713Z,17.10
2022-08-07T20:02:39.183Z,17.00
2022-08-07T20:05:10.263Z,16.90
2022-08-07T20:10:37.839Z,16.80
2022-08-07T21:10:25.171Z,15.70
2022-08-07T21:15:48.203Z,15.60
2022-08-07T21:18:25.764Z,15.50
2022-08-07T21:20:57.540Z,15.50
2022-08-07T21:24:05.143Z,15.40
2022-08-07T21:26:43.629Z,15.40
2022-08-07T21:29:21.405Z,15.40
2022-08-07T21:32:47.429Z,15.30
2022-08-07T21:35:11.355Z,15.30
2022-08-07T21:38:00.143Z,15.20
2022-08-07T21:40:50.144Z,15.20
2022-08-07T21:43:22.999Z,15.10
2022-08-07T21:46:08.366Z,15.10
2022-08-07T21:49:04.878Z,15.00
2022-08-07T21:52:13.185Z,15.00
2022-08-07T21:54:52.573Z,14.90
2022-08-07T21:57:44.961Z,14.80
2022-08-07T22:00:25.195Z,14.80
2022-08-07T22:03:00.274Z,14.80
2022-08-07T22:05:45.669Z,14.70
2022-08-07T22:22:17.753Z,14.60
2022-08-07T22:25:03.330Z,14.60
2022-08-07T22:28:03.012Z,14.50
2022-08-07T22:30:52.021Z,14.50
2022-08-07T22:33:53.347Z,14.50
2022-08-07T22:36:34.581Z,14.40
2022-08-07T22:39:35.296Z,14.40
2022-08-07T22:42:25.982Z,14.40
2022-08-07T22:44:59.862Z,14.30
2022-08-07T22:47:53.498Z,14.30
2022-08-07T22:50:39.789Z,14.30
2022-08-07T22:54:07.029Z,14.20
2022-08-07T22:57:17.577Z,14.20
2022-08-07T23:50:27.133Z,13.70
2022-08-07T23:53:50.891Z,13.70
